createdAt,value
2023-01-29T00:02:20.731Z,101220.78
2023-01-29T00:04:51.330Z,101220.47
2023-01-29T00:07:22.557Z,101216.97
2023-01-29T00:09:53.255Z,101218.47
2023-01-29T00:12:24.505Z,101229.53
2023-01-29T00:14:55.813Z,101221.84
2023-01-29T00:17:26.456Z,101231.66
2023-01-29T00:19:56.661Z,101239.44
2023-01-29T00:22:27.222Z,101236.66
2023-01-29T00:24:58.064Z,101239.25
2023-01-29T00:27:28.881Z,101243.00
2023-01-29T00:30:13.959Z,101242.19
2023-01-29T00:32:44.444Z,101256.16
2023-01-29T00:35:14.502Z,101255.16
2023-01-29T00:37:45.543Z,101259.38
2023-01-29T00:40:16.375Z,101259.59
2023-01-29T00:43:05.394Z,101258.94
2023-01-29T00:45:37.818Z,101265.69
2023-01-29T00:48:08.954Z,101257.97
2023-01-29T00:50:41.798Z,101255.44
2023-01-29T00:53:12.360Z,101259.34
2023-01-29T00:55:43.521Z,101270.41
2023-01-29T00:58:14.089Z,101258.66
2023-01-29T01:00:44.412Z,101263.38
2023-01-29T01:03:15.497Z,101267.31
2023-01-29T01:05:45.589Z,101269.69
2023-01-29T01:08:34.228Z,101268.84
2023-01-29T01:11:15.097Z,101272.75
2023-01-29T01:13:46.002Z,101260.78
2023-01-29T01:16:18.385Z,101265.69
2023-01-29T01:18:48.940Z,101263.84
2023-01-29T01:21:19.842Z,101248.34
2023-01-29T01:23:52.892Z,101260.47
2023-01-29T01:26:23.557Z,101260.34
2023-01-29T01:28:54.444Z,101253.75
2023-01-29T01:31:24.888Z,101254.75
2023-01-29T01:33:56.677Z,101254.97
2023-01-29T01:36:32.379Z,101256.13
2023-01-29T01:39:02.774Z,101254.44
2023-01-29T01:41:33.377Z,101251.06
2023-01-29T01:44:05.301Z,101247.72
2023-01-29T01:46:38.138Z,101251.75
2023-01-29T01:49:19.930Z,101246.03
2023-01-29T01:51:52.530Z,101244.69
2023-01-29T01:54:29.675Z,101241.31
2023-01-29T01:57:10.299Z,101234.59
2023-01-29T01:59:42.124Z,101237.28
2023-01-29T02:02:32.139Z,101236.28
2023-01-29T02:05:20.430Z,101237.94
2023-01-29T02:08:10.849Z,101232.75
2023-01-29T02:10:47.456Z,101232.94
2023-01-29T02:13:19.627Z,101226.38
2023-01-29T02:15:50.281Z,101229.56
2023-01-29T02:18:23.451Z,101232.59
2023-01-29T02:21:49.858Z,101236.31
2023-01-29T02:24:23.870Z,101219.28
2023-01-29T02:27:31.193Z,101214.75
2023-01-29T02:30:13.575Z,101213.06
2023-01-29T02:33:08.445Z,101216.78
2023-01-29T02:35:51.917Z,101205.50
2023-01-29T02:38:43.254Z,101211.88
2023-01-29T02:41:32.030Z,101217.44
2023-01-29T02:44:07.053Z,101217.94
2023-01-29T02:46:59.645Z,101208.84
2023-01-29T02:49:50.082Z,101206.16
2023-01-29T02:52:25.967Z,101204.63
2023-01-29T02:55:11.834Z,101202.25
2023-01-29T02:57:45.846Z,101184.19
2023-01-29T03:00:29.280Z,101175.91
2023-01-29T03:03:21.980Z,101175.72
2023-01-29T03:06:00.854Z,101164.44
2023-01-29T03:08:46.616Z,101153.31
2023-01-29T03:11:17.977Z,101145.06
2023-01-29T03:14:04.442Z,101156.81
2023-01-29T03:16:40.543Z,101148.06
2023-01-29T03:19:17.191Z,101148.91
2023-01-29T03:22:11.747Z,101140.66
2023-01-29T03:25:01.590Z,101136.06
2023-01-29T03:31:24.089Z,101127.19
2023-01-29T03:34:05.346Z,101119.28
2023-01-29T03:36:46.234Z,101113.41
2023-01-29T03:39:17.386Z,101103.44
2023-01-29T03:42:04.600Z,101093.16
2023-01-29T03:44:53.723Z,101099.38
2023-01-29T03:47:47.896Z,101080.34
2023-01-29T03:50:31.719Z,101077.09
2023-01-29T03:53:12.151Z,101074.25
2023-01-29T03:56:08.683Z,101064.78
2023-01-29T03:59:02.747Z,101058.53
2023-01-29T04:01:59.593Z,101057.53
2023-01-29T04:04:37.836Z,101059.88
2023-01-29T04:07:26.897Z,101056.16
2023-01-29T04:10:21.223Z,101047.34
2023-01-29T04:13:03.789Z,101040.22
2023-01-29T04:15:38.859Z,101034.47
2023-01-29T04:18:10.197Z,101022.34
2023-01-29T04:21:01.829Z,101022.19
2023-01-29T04:23:32.390Z,101023.00
2023-01-29T04:26:28.300Z,101011.84
2023-01-29T04:29:23.191Z,101008.69
2023-01-29T04:32:12.490Z,101013.88
2023-01-29T04:34:59.656Z,101002.75
2023-01-29T04:37:46.341Z,100991.56
2023-01-29T04:40:22.684Z,100978.56
2023-01-29T04:42:59.696Z,100973.97
2023-01-29T04:45:59.587Z,100968.78
2023-01-29T04:48:46.356Z,100965.88
2023-01-29T04:51:40.711Z,100956.97
2023-01-29T04:54:22.516Z,100954.72
2023-01-29T04:56:55.677Z,100953.25
2023-01-29T04:59:42.568Z,100954.72
2023-01-29T05:02:13.899Z,100937.06
2023-01-29T05:04:46.033Z,100945.25
2023-01-29T05:07:17.332Z,100928.78
2023-01-29T05:09:49.039Z,100925.47
2023-01-29T05:12:39.473Z,100925.19
2023-01-29T05:15:14.440Z,100908.59
2023-01-29T05:17:44.980Z,100912.34
2023-01-29T05:20:16.668Z,100919.03
2023-01-29T05:22:49.185Z,100909.44
2023-01-29T05:25:29.031Z,100908.88
2023-01-29T05:28:12.788Z,100897.50
2023-01-29T05:30:45.418Z,100895.22
2023-01-29T05:33:20.731Z,100891.72
2023-01-29T05:35:51.877Z,100878.31
2023-01-29T05:38:23.288Z,100874.78
2023-01-29T05:40:55.265Z,100869.91
2023-01-29T05:43:27.134Z,100873.38
2023-01-29T05:46:02.423Z,100870.16
2023-01-29T05:48:33.546Z,100872.97
2023-01-29T05:51:05.393Z,100864.25
2023-01-29T05:53:36.306Z,100860.44
2023-01-29T05:56:07.653Z,100865.03
2023-01-29T05:58:38.566Z,100867.44
2023-01-29T06:01:16.491Z,100859.06
2023-01-29T06:03:47.675Z,100855.16
2023-01-29T06:06:18.720Z,100857.56
2023-01-29T06:08:49.531Z,100856.66
2023-01-29T06:11:19.927Z,100850.41
2023-01-29T06:13:58.541Z,100842.56
2023-01-29T06:16:28.859Z,100850.28
2023-01-29T06:19:00.374Z,100847.78
2023-01-29T06:21:30.884Z,100843.16
2023-01-29T06:24:01.853Z,100844.31
2023-01-29T06:26:33.261Z,100840.81
2023-01-29T06:29:03.693Z,100839.16
2023-01-29T06:31:38.772Z,100843.84
2023-01-29T06:34:10.349Z,100841.91
2023-01-29T06:36:42.729Z,100840.19
2023-01-29T06:39:13.648Z,100842.50
2023-01-29T06:41:44.062Z,100844.56
2023-01-29T06:44:14.883Z,100835.91
2023-01-29T06:46:46.352Z,100837.84
2023-01-29T06:49:16.779Z,100834.50
2023-01-29T06:51:47.936Z,100836.44
2023-01-29T06:54:18.785Z,100829.84
2023-01-29T06:56:49.703Z,100825.09
2023-01-29T06:59:20.579Z,100836.94
2023-01-29T07:01:50.980Z,100819.78
2023-01-29T07:04:21.647Z,100830.31
2023-01-29T07:06:52.564Z,100829.47
2023-01-29T07:09:22.966Z,100829.84
2023-01-29T07:11:53.717Z,100820.06
2023-01-29T07:14:24.483Z,100834.38
2023-01-29T07:16:54.882Z,100833.94
2023-01-29T07:19:25.452Z,100835.50
2023-01-29T07:21:59.115Z,100849.09
2023-01-29T07:24:29.901Z,100845.47
2023-01-29T07:27:00.546Z,100843.44
2023-01-29T07:29:31.339Z,100850.50
2023-01-29T07:32:02.292Z,100854.69
2023-01-29T07:34:32.901Z,100855.81
2023-01-29T07:37:03.133Z,100869.50
2023-01-29T07:39:34.439Z,100862.44
2023-01-29T07:42:04.695Z,100869.66
2023-01-29T07:44:35.328Z,100870.31
2023-01-29T07:47:05.874Z,100873.97
2023-01-29T07:49:36.226Z,100872.94
2023-01-29T07:52:06.691Z,100880.19
2023-01-29T07:54:37.333Z,100887.47
2023-01-29T07:57:07.890Z,100885.78
2023-01-29T07:59:38.681Z,100883.47
2023-01-29T08:02:11.313Z,100883.84
2023-01-29T08:04:42.176Z,100878.81
2023-01-29T08:07:13.871Z,100885.69
2023-01-29T08:09:44.460Z,100895.00
2023-01-29T08:12:15.813Z,100900.41
2023-01-29T08:14:46.774Z,100890.78
2023-01-29T08:17:17.685Z,100898.34
2023-01-29T08:19:48.204Z,100904.56
2023-01-29T08:22:19.030Z,100907.84
2023-01-29T08:25:06.326Z,100906.81
2023-01-29T08:27:38.323Z,100909.13
2023-01-29T08:30:10.524Z,100909.78
2023-01-29T08:32:41.319Z,100918.91
2023-01-29T08:35:12.313Z,100923.16
2023-01-29T08:37:42.987Z,100936.22
2023-01-29T08:40:14.333Z,100940.59
2023-01-29T08:42:46.697Z,100939.56
2023-01-29T08:45:17.225Z,100948.03
2023-01-29T08:47:51.256Z,100958.00
2023-01-29T08:50:21.849Z,100955.09
2023-01-29T08:52:51.990Z,100958.53
2023-01-29T08:55:22.759Z,100951.75
2023-01-29T08:57:53.394Z,100954.81
2023-01-29T09:00:24.392Z,100948.38
2023-01-29T09:02:55.156Z,100955.47
2023-01-29T09:05:26.065Z,100954.81
2023-01-29T09:08:00.888Z,100964.94
2023-01-29T09:10:31.871Z,100969.72
2023-01-29T09:13:04.425Z,100961.59
2023-01-29T09:15:35.196Z,100972.66
2023-01-29T09:18:06.749Z,100976.59
2023-01-29T09:20:39.240Z,100975.44
2023-01-29T09:23:12.522Z,100979.44
2023-01-29T09:25:45.138Z,100993.13
2023-01-29T09:28:22.552Z,101000.06
2023-01-29T09:30:53.647Z,100986.56
2023-01-29T09:33:25.655Z,100996.28
2023-01-29T09:35:56.125Z,101004.03
2023-01-29T09:38:27.092Z,101004.88
2023-01-29T09:41:20.293Z,101011.66
2023-01-29T09:43:55.844Z,101008.09
2023-01-29T09:46:43.726Z,101008.09
2023-01-29T09:49:26.471Z,101008.09
2023-01-29T09:52:02.883Z,101014.53
2023-01-29T09:55:00.819Z,101016.09
2023-01-29T09:57:53.170Z,101023.66
2023-01-29T10:00:31.777Z,101014.91
2023-01-29T10:03:10.785Z,101017.97
2023-01-29T10:06:22.721Z,101021.38
2023-01-29T10:09:03.708Z,101029.19
2023-01-29T10:11:40.067Z,101032.91
2023-01-29T10:14:30.376Z,101039.97
2023-01-29T10:17:03.286Z,101043.81
2023-01-29T10:20:00.425Z,101043.47
2023-01-29T10:22:53.274Z,101054.72
2023-01-29T10:25:24.682Z,101060.13
2023-01-29T10:27:58.275Z,101061.31
2023-01-29T10:30:59.830Z,101063.47
2023-01-29T10:34:01.398Z,101074.63
2023-01-29T10:36:59.226Z,101088.41
2023-01-29T10:39:32.903Z,101076.97
2023-01-29T10:42:39.357Z,101071.41
2023-01-29T10:45:25.979Z,101082.41
2023-01-29T10:48:31.410Z,101086.13
2023-01-29T10:51:04.493Z,101092.22
2023-01-29T10:53:48.240Z,101096.91
2023-01-29T10:56:25.942Z,101104.38
2023-01-29T10:59:31.866Z,101110.09
2023-01-29T11:02:04.332Z,101124.13
2023-01-29T11:04:39.594Z,101119.75
2023-01-29T11:07:10.650Z,101126.31
2023-01-29T11:09:51.303Z,101121.94
2023-01-29T11:12:27.541Z,101123.63
2023-01-29T11:15:24.235Z,101132.38
2023-01-29T11:18:05.632Z,101141.13
2023-01-29T11:20:37.248Z,101150.44
2023-01-29T11:23:20.737Z,101152.97
2023-01-29T11:25:56.259Z,101152.97
2023-01-29T11:28:53.241Z,101167.66
2023-01-29T11:31:42.749Z,101152.97
2023-01-29T11:34:34.072Z,101155.34
2023-01-29T11:37:06.633Z,101180.00
2023-01-29T11:39:45.582Z,101175.31
2023-01-29T11:42:24.471Z,101165.88
2023-01-29T11:44:55.571Z,101173.28
2023-01-29T11:47:31.014Z,101181.53
2023-01-29T11:50:03.543Z,101181.53
2023-01-29T11:52:43.086Z,101180.81
2023-01-29T11:55:27.516Z,101185.75
2023-01-29T11:58:13.135Z,101181.72
2023-01-29T12:00:48.388Z,101190.81
2023-01-29T12:03:26.489Z,101188.25
2023-01-29T12:06:01.356Z,101192.81
2023-01-29T12:08:42.995Z,101195.19
2023-01-29T12:11:33.381Z,101198.69
2023-01-29T12:14:23.582Z,101199.72
2023-01-29T12:16:58.610Z,101204.94
2023-01-29T12:20:04.310Z,101210.47
2023-01-29T12:23:11.564Z,101208.97
2023-01-29T12:26:05.716Z,101219.81
2023-01-29T12:28:56.460Z,101209.38
2023-01-29T12:31:49.689Z,101213.06
2023-01-29T12:34:40.119Z,101205.63
2023-01-29T12:37:29.518Z,101205.63
2023-01-29T12:40:00.771Z,101221.47
2023-01-29T12:42:32.998Z,101219.78
2023-01-29T12:45:08.066Z,101218.91
2023-01-29T12:47:55.275Z,101230.56
2023-01-29T12:50:35.156Z,101237.63
2023-01-29T12:53:09.388Z,101227.19
2023-01-29T12:55:56.284Z,101228.88
2023-01-29T12:58:42.297Z,101231.56
2023-01-29T13:01:24.842Z,101230.91
2023-01-29T13:04:08.097Z,101231.72
2023-01-29T13:06:45.357Z,101224.16
2023-01-29T13:09:21.033Z,101226.19
2023-01-29T13:12:10.486Z,101224.84
2023-01-29T13:14:57.984Z,101220.28
2023-01-29T13:17:56.089Z,101220.13
2023-01-29T13:20:34.512Z,101225.00
2023-01-29T13:23:23.455Z,101218.13
2023-01-29T13:25:57.989Z,101222.16
2023-01-29T13:28:29.179Z,101222.84
2023-01-29T13:31:37.844Z,101219.81
2023-01-29T13:34:16.718Z,101220.81
2023-01-29T13:36:52.585Z,101219.44
2023-01-29T13:39:30.674Z,101221.31
2023-01-29T13:42:02.804Z,101224.19
2023-01-29T13:44:41.224Z,101219.44
2023-01-29T13:47:13.356Z,101229.88
2023-01-29T13:49:55.342Z,101218.94
2023-01-29T13:52:30.944Z,101229.19
2023-01-29T13:55:06.770Z,101228.88
2023-01-29T13:57:50.299Z,101230.53
2023-01-29T14:00:23.416Z,101227.19
2023-01-29T14:02:57.238Z,101228.88
2023-01-29T14:05:34.967Z,101230.22
2023-01-29T14:08:40.859Z,101220.13
2023-01-29T14:11:17.792Z,101227.84
2023-01-29T14:13:49.929Z,101221.66
2023-01-29T14:16:20.854Z,101226.50
2023-01-29T14:18:59.814Z,101221.13
2023-01-29T14:21:36.194Z,101232.88
2023-01-29T14:24:21.775Z,101221.09
2023-01-29T14:26:56.850Z,101231.84
2023-01-29T14:29:34.952Z,101240.56
2023-01-29T14:32:14.530Z,101241.59
2023-01-29T14:34:51.938Z,101235.41
2023-01-29T14:37:35.479Z,101230.50
2023-01-29T14:40:21.695Z,101227.34
2023-01-29T14:43:08.172Z,101226.81
2023-01-29T14:45:45.775Z,101227.13
2023-01-29T14:48:39.532Z,101228.16
2023-01-29T14:51:15.831Z,101223.44
2023-01-29T14:54:07.871Z,101229.50
2023-01-29T14:56:43.926Z,101222.41
2023-01-29T14:59:38.396Z,101214.34
2023-01-29T15:02:45.348Z,101215.03
2023-01-29T15:05:20.638Z,101203.44
2023-01-29T15:08:17.490Z,101199.22
2023-01-29T15:11:12.368Z,101198.19
2023-01-29T15:13:54.624Z,101199.88
2023-01-29T15:16:28.587Z,101203.56
2023-01-29T15:19:10.102Z,101210.97
2023-01-29T15:21:40.686Z,101213.28
2023-01-29T15:24:15.273Z,101207.25
2023-01-29T15:26:45.949Z,101194.63
2023-01-29T15:29:25.562Z,101195.78
2023-01-29T15:32:00.330Z,101196.78
2023-01-29T15:34:31.292Z,101201.16
2023-01-29T15:37:01.705Z,101200.81
2023-01-29T15:39:32.764Z,101196.28
2023-01-29T15:42:17.533Z,101197.13
2023-01-29T15:44:48.456Z,101191.56
2023-01-29T15:47:19.024Z,101195.78
2023-01-29T15:49:50.010Z,101201.50
2023-01-29T15:52:27.622Z,101216.28
2023-01-29T15:54:59.464Z,101200.81
2023-01-29T15:57:38.572Z,101200.31
2023-01-29T16:00:26.248Z,101197.94
2023-01-29T16:02:58.303Z,101194.56
2023-01-29T16:05:39.267Z,101199.13
2023-01-29T16:08:14.215Z,101189.19
2023-01-29T16:10:46.052Z,101189.19
2023-01-29T16:13:30.427Z,101190.03
2023-01-29T16:16:16.497Z,101190.88
2023-01-29T16:18:59.470Z,101188.16
2023-01-29T16:21:40.202Z,101194.41
2023-01-29T16:24:17.050Z,101187.84
2023-01-29T16:26:49.922Z,101190.38
2023-01-29T16:29:23.988Z,101182.59
2023-01-29T16:32:01.566Z,101178.38
2023-01-29T16:34:40.067Z,101182.94
2023-01-29T16:37:24.470Z,101179.88
2023-01-29T16:39:55.385Z,101171.47
2023-01-29T16:42:33.473Z,101168.91
2023-01-29T16:45:05.130Z,101164.19
2023-01-29T16:47:44.583Z,101167.06
2023-01-29T16:50:46.207Z,101161.69
2023-01-29T16:53:28.262Z,101167.66
2023-01-29T16:56:04.338Z,101161.44
2023-01-29T16:58:35.072Z,101154.69
2023-01-29T17:01:09.703Z,101158.38
2023-01-29T17:03:41.102Z,101153.88
2023-01-29T17:06:13.542Z,101159.56
2023-01-29T17:08:46.588Z,101152.50
2023-01-29T17:11:29.741Z,101150.50
2023-01-29T17:14:00.439Z,101147.44
2023-01-29T17:16:33.938Z,101156.50
2023-01-29T17:19:15.308Z,101152.13
2023-01-29T17:21:46.795Z,101151.47
2023-01-29T17:24:17.563Z,101149.78
2023-01-29T17:26:48.379Z,101149.78
2023-01-29T17:29:31.112Z,101142.41
2023-01-29T17:32:01.406Z,101138.53
2023-01-29T17:34:32.125Z,101152.78
2023-01-29T17:37:03.397Z,101135.97
2023-01-29T17:39:33.778Z,101139.66
2023-01-29T17:42:04.406Z,101135.47
2023-01-29T17:44:35.434Z,101126.72
2023-01-29T17:47:06.443Z,101128.41
2023-01-29T17:49:38.296Z,101121.34
2023-01-29T17:52:08.810Z,101120.66
2023-01-29T17:54:39.212Z,101115.44
2023-01-29T17:57:10.921Z,101111.25
2023-01-29T17:59:41.560Z,101120.13
2023-01-29T18:02:29.802Z,101114.63
2023-01-29T18:05:00.515Z,101117.44
2023-01-29T18:07:31.356Z,101107.88
2023-01-29T18:10:01.660Z,101110.72
2023-01-29T18:12:32.001Z,101112.41
2023-01-29T18:15:02.383Z,101103.50
2023-01-29T18:17:33.213Z,101103.50
2023-01-29T18:20:03.954Z,101103.66
2023-01-29T18:22:34.532Z,101105.66
2023-01-29T18:25:05.078Z,101102.28
2023-01-29T18:27:35.616Z,101095.22
2023-01-29T18:30:06.928Z,101086.81
2023-01-29T18:32:37.792Z,101090.50
2023-01-29T18:35:09.066Z,101093.19
2023-01-29T18:37:39.389Z,101095.03
2023-01-29T18:40:18.266Z,101095.03
2023-01-29T18:42:49.427Z,101090.00
2023-01-29T18:45:20.215Z,101087.13
2023-01-29T18:47:50.942Z,101095.34
2023-01-29T18:50:24.275Z,101093.69
2023-01-29T18:52:55.336Z,101096.47
2023-01-29T18:55:27.534Z,101093.97
2023-01-29T18:58:25.089Z,101090.28
2023-01-29T19:00:49.357Z,101091.09
2023-01-29T19:03:19.629Z,101101.34
2023-01-29T19:05:49.817Z,101094.78
2023-01-29T19:08:20.090Z,101094.78
2023-01-29T19:10:50.354Z,101107.84
2023-01-29T19:13:20.768Z,101088.38
2023-01-29T19:15:51.240Z,101095.75
2023-01-29T19:18:22.134Z,101096.59
2023-01-29T19:20:54.313Z,101094.22
2023-01-29T19:23:24.972Z,101095.06
2023-01-29T19:25:58.938Z,101093.53
2023-01-29T19:28:29.599Z,101104.28
2023-01-29T19:31:03.807Z,101101.75
2023-01-29T19:33:34.159Z,101095.84
2023-01-29T19:36:04.873Z,101102.06
2023-01-29T19:38:39.418Z,101098.72
2023-01-29T19:41:09.640Z,101105.75
2023-01-29T19:43:42.814Z,101100.72
2023-01-29T19:46:13.648Z,101095.66
2023-01-29T19:48:44.996Z,101103.03
2023-01-29T19:51:15.793Z,101102.16
2023-01-29T19:53:46.370Z,101102.03
2023-01-29T19:56:19.448Z,101103.03
2023-01-29T19:58:49.746Z,101107.72
2023-01-29T20:01:31.474Z,101106.72
2023-01-29T20:04:01.822Z,101106.03
2023-01-29T20:06:32.191Z,101102.78
2023-01-29T20:09:03.901Z,101113.38
2023-01-29T20:11:34.243Z,101113.53
2023-01-29T20:14:08.321Z,101111.84
2023-01-29T20:16:41.743Z,101112.03
2023-01-29T20:19:15.467Z,101113.00
2023-01-29T20:21:52.565Z,101112.31
2023-01-29T20:24:24.329Z,101119.53
2023-01-29T20:26:54.760Z,101120.00
2023-01-29T20:29:25.070Z,101112.94
2023-01-29T20:31:55.841Z,101113.63
2023-01-29T20:34:26.505Z,101119.00
2023-01-29T20:36:57.441Z,101124.38
2023-01-29T20:39:27.676Z,101131.44
2023-01-29T20:41:58.318Z,101135.41
2023-01-29T20:44:28.980Z,101133.56
2023-01-29T20:47:02.023Z,101137.72
2023-01-29T20:49:32.398Z,101141.09
2023-01-29T20:52:02.715Z,101142.22
2023-01-29T20:54:34.149Z,101145.06
2023-01-29T20:57:12.740Z,101152.97
2023-01-29T20:59:45.943Z,101152.13
2023-01-29T21:02:16.245Z,101159.50
2023-01-29T21:04:46.509Z,101157.13
2023-01-29T21:07:17.402Z,101161.47
2023-01-29T21:09:48.119Z,101165.44
2023-01-29T21:12:18.853Z,101158.06
2023-01-29T21:14:51.245Z,101173.31
2023-01-29T21:17:22.339Z,101173.22
2023-01-29T21:19:52.984Z,101176.00
2023-01-29T21:22:24.937Z,101181.84
2023-01-29T21:24:58.726Z,101185.22
2023-01-29T21:27:29.285Z,101184.34
2023-01-29T21:30:02.223Z,101187.22
2023-01-29T21:32:32.784Z,101192.56
2023-01-29T21:35:03.004Z,101188.19
2023-01-29T21:37:37.796Z,101191.03
2023-01-29T21:40:09.246Z,101197.53
2023-01-29T21:42:58.087Z,101197.53
2023-01-29T21:45:29.454Z,101198.53
2023-01-29T21:48:00.057Z,101205.59
2023-01-29T21:50:30.473Z,101209.28
2023-01-29T21:53:01.006Z,101215.75
2023-01-29T21:55:31.376Z,101214.63
2023-01-29T21:58:09.937Z,101222.69
2023-01-29T22:00:40.979Z,101223.69
2023-01-29T22:03:12.211Z,101228.19
2023-01-29T22:05:42.670Z,101222.13
2023-01-29T22:08:13.232Z,101222.28
2023-01-29T22:10:46.811Z,101222.28
2023-01-29T22:13:17.309Z,101215.25
2023-01-29T22:15:47.952Z,101218.63
2023-01-29T22:18:18.840Z,101221.13
2023-01-29T22:20:54.748Z,101225.66
2023-01-29T22:23:26.383Z,101233.72
2023-01-29T22:26:02.814Z,101229.66
2023-01-29T22:28:33.129Z,101233.03
2023-01-29T22:31:05.770Z,101239.06
2023-01-29T22:33:36.628Z,101239.22
2023-01-29T22:36:07.573Z,101235.00
2023-01-29T22:38:37.877Z,101237.00
2023-01-29T22:41:08.387Z,101238.38
2023-01-29T22:43:38.627Z,101239.38
2023-01-29T22:46:10.251Z,101250.25
2023-01-29T22:48:41.039Z,101247.44
2023-01-29T22:51:11.926Z,101249.41
2023-01-29T22:53:54.065Z,101247.44
2023-01-29T22:56:30.526Z,101244.06
2023-01-29T22:59:01.876Z,101244.06
2023-01-29T23:01:33.829Z,101246.72
2023-01-29T23:04:04.207Z,101250.81
2023-01-29T23:06:35.025Z,101253.88
2023-01-29T23:09:05.549Z,101258.94
2023-01-29T23:11:35.894Z,101264.00
2023-01-29T23:14:06.296Z,101265.53
2023-01-29T23:16:37.150Z,101266.41
2023-01-29T23:19:08.489Z,101268.81
2023-01-29T23:21:39.014Z,101268.50
2023-01-29T23:24:10.651Z,101281.63
2023-01-29T23:27:01.825Z,101280.94
2023-01-29T23:29:32.524Z,101281.16
2023-01-29T23:32:02.889Z,101278.34
2023-01-29T23:34:33.161Z,101295.13
2023-01-29T23:37:03.549Z,101290.47
2023-01-29T23:39:33.834Z,101288.47
2023-01-29T23:42:04.308Z,101289.16
2023-01-29T23:44:34.676Z,101298.59
2023-01-29T23:47:05.366Z,101306.66
2023-01-29T23:49:36.093Z,101311.03
2023-01-29T23:52:06.552Z,101307.34
2023-01-29T23:54:37.675Z,101308.72
2023-01-29T23:57:07.905Z,101310.03
2023-01-29T23:59:46.198Z,101306.88
